createdAt,value
2022-09-30T00:01:44.180Z,4.50
2022-09-30T00:04:17.554Z,4.18
2022-09-30T00:06:46.978Z,4.53
2022-09-30T00:09:15.653Z,6.78
2022-09-30T00:11:44.646Z,5.03
2022-09-30T00:14:17.930Z,4.25
2022-09-30T00:16:46.827Z,5.03
2022-09-30T00:19:17.373Z,4.18
2022-09-30T00:21:46.571Z,5.95
2022-09-30T00:24:14.939Z,4.93
2022-09-30T00:26:43.346Z,7.65
2022-09-30T00:29:12.298Z,2.60
2022-09-30T00:31:40.934Z,3.92
2022-09-30T00:34:09.567Z,2.35
2022-09-30T00:36:43.767Z,3.38
2022-09-30T00:39:15.072Z,8.80
2022-09-30T00:41:44.542Z,5.53
2022-09-30T00:44:48.166Z,3.35
2022-09-30T00:47:32.144Z,3.95
2022-09-30T00:52:32.210Z,3.55
2022-09-30T00:55:03.266Z,4.63
2022-09-30T00:57:32.331Z,7.95
2022-09-30T01:00:01.737Z,5.50
2022-09-30T01:02:30.877Z,4.13
2022-09-30T01:04:59.334Z,3.42
2022-09-30T01:07:28.321Z,4.05
2022-09-30T01:09:59.493Z,2.50
2022-09-30T01:12:28.424Z,4.57
2022-09-30T01:14:58.963Z,3.50
2022-09-30T01:17:38.568Z,7.53
2022-09-30T01:20:38.959Z,4.90
2022-09-30T01:23:48.103Z,3.72
2022-09-30T01:26:45.948Z,4.43
2022-09-30T01:30:01.790Z,4.03
2022-09-30T01:32:46.092Z,3.58
2022-09-30T01:35:26.846Z,3.28
2022-09-30T01:38:05.293Z,4.05
2022-09-30T01:40:42.910Z,3.97
2022-09-30T01:43:20.129Z,2.95
2022-09-30T01:45:58.590Z,3.22
2022-09-30T01:48:36.549Z,3.55
2022-09-30T01:51:11.537Z,5.00
2022-09-30T01:53:45.147Z,3.88
2022-09-30T01:56:18.685Z,5.13
2022-09-30T01:58:54.776Z,4.43
2022-09-30T02:01:28.807Z,2.72
2022-09-30T02:04:02.083Z,5.45
2022-09-30T02:06:36.535Z,3.90
2022-09-30T02:09:10.800Z,5.25
2022-09-30T02:11:40.933Z,3.97
2022-09-30T02:14:15.239Z,3.50
2022-09-30T02:16:49.528Z,5.13
2022-09-30T02:19:25.698Z,3.70
2022-09-30T02:21:58.469Z,4.45
2022-09-30T02:24:32.273Z,5.03
2022-09-30T02:27:03.226Z,2.40
2022-09-30T02:29:36.982Z,3.55
2022-09-30T02:34:42.268Z,3.70
2022-09-30T02:37:14.895Z,2.83
2022-09-30T02:39:50.732Z,3.10
2022-09-30T02:42:21.687Z,4.45
2022-09-30T02:44:52.631Z,4.40
2022-09-30T02:47:29.690Z,3.95
2022-09-30T02:50:03.797Z,4.82
2022-09-30T02:52:49.014Z,4.38
2022-09-30T02:55:23.154Z,3.42
2022-09-30T02:58:01.440Z,7.32
2022-09-30T03:00:30.975Z,4.28
2022-09-30T03:03:02.965Z,7.82
2022-09-30T03:05:32.938Z,3.70
2022-09-30T03:08:02.728Z,5.03
2022-09-30T03:10:31.935Z,6.25
2022-09-30T03:13:17.593Z,6.78
2022-09-30T03:16:01.401Z,3.72
2022-09-30T03:18:45.923Z,3.22
2022-09-30T03:21:29.059Z,2.50
2022-09-30T03:24:27.337Z,2.70
2022-09-30T03:27:09.620Z,4.05
2022-09-30T03:29:48.821Z,4.55
2022-09-30T03:32:32.146Z,4.00
2022-09-30T03:35:15.151Z,2.50
2022-09-30T03:37:53.450Z,3.40
2022-09-30T03:40:31.610Z,4.63
2022-09-30T03:43:06.416Z,3.25
2022-09-30T03:45:40.314Z,3.67
2022-09-30T03:48:13.824Z,6.78
2022-09-30T03:50:43.237Z,2.53
2022-09-30T03:53:14.514Z,1.90
2022-09-30T03:55:52.197Z,5.65
2022-09-30T03:58:23.766Z,2.83
2022-09-30T04:00:54.418Z,3.50
2022-09-30T04:03:24.188Z,2.20
2022-09-30T04:05:52.566Z,6.22
2022-09-30T04:08:23.197Z,3.90
2022-09-30T04:10:51.561Z,5.57
2022-09-30T04:13:20.285Z,5.28
2022-09-30T04:15:55.419Z,4.47
2022-09-30T04:18:23.795Z,2.85
2022-09-30T04:20:52.194Z,2.58
2022-09-30T04:23:21.940Z,7.75
2022-09-30T04:25:54.885Z,6.32
2022-09-30T04:28:23.782Z,3.88
2022-09-30T04:30:52.099Z,4.65
2022-09-30T04:33:20.835Z,3.67
2022-09-30T04:35:49.501Z,10.05
2022-09-30T04:38:18.376Z,5.93
2022-09-30T04:40:49.661Z,3.70
2022-09-30T04:43:19.177Z,6.35
2022-09-30T04:45:48.398Z,5.18
2022-09-30T04:48:17.792Z,4.15
2022-09-30T04:50:46.483Z,4.47
2022-09-30T04:53:15.579Z,6.05
2022-09-30T04:55:44.189Z,5.13
2022-09-30T04:58:15.367Z,3.80
2022-09-30T05:00:43.787Z,5.47
2022-09-30T05:03:12.170Z,4.97
2022-09-30T05:05:42.280Z,8.35
2022-09-30T05:08:11.346Z,6.55
2022-09-30T05:10:40.296Z,8.35
2022-09-30T05:13:08.649Z,4.50
2022-09-30T05:15:38.492Z,6.07
2022-09-30T05:18:06.856Z,6.80
2022-09-30T05:20:35.829Z,8.52
2022-09-30T05:23:04.231Z,4.60
2022-09-30T05:25:33.167Z,4.25
2022-09-30T05:28:02.065Z,5.10
2022-09-30T05:30:30.610Z,6.80
2022-09-30T05:33:00.634Z,5.30
2022-09-30T05:35:29.926Z,7.43
2022-09-30T05:37:59.058Z,5.20
2022-09-30T05:40:27.719Z,7.85
2022-09-30T05:42:58.222Z,7.47
2022-09-30T05:45:27.104Z,4.40
2022-09-30T05:47:55.982Z,6.65
2022-09-30T05:50:27.127Z,6.32
2022-09-30T05:52:55.510Z,8.35
2022-09-30T05:55:24.254Z,7.40
2022-09-30T05:57:53.678Z,8.77
2022-09-30T06:00:22.365Z,9.43
2022-09-30T06:02:53.656Z,4.88
2022-09-30T06:05:22.917Z,4.93
2022-09-30T06:07:52.975Z,7.90
2022-09-30T06:10:21.326Z,16.75
2022-09-30T06:12:49.678Z,16.05
2022-09-30T06:15:18.135Z,14.27
2022-09-30T06:17:47.071Z,10.77
2022-09-30T06:20:15.454Z,12.00
2022-09-30T06:22:44.240Z,9.23
2022-09-30T06:25:14.854Z,8.45
2022-09-30T06:27:47.918Z,5.80
2022-09-30T06:30:16.381Z,8.15
2022-09-30T06:32:45.654Z,9.63
2022-09-30T06:35:13.982Z,7.40
2022-09-30T06:37:42.763Z,7.60
2022-09-30T06:40:11.595Z,8.32
2022-09-30T06:42:42.094Z,6.60
2022-09-30T06:45:18.993Z,7.35
2022-09-30T06:47:59.862Z,9.90
2022-09-30T06:50:29.089Z,6.60
2022-09-30T06:52:59.902Z,4.00
2022-09-30T06:55:28.397Z,5.03
2022-09-30T06:57:58.491Z,6.70
2022-09-30T07:00:28.858Z,6.45
2022-09-30T07:02:58.191Z,6.85
2022-09-30T07:05:27.262Z,7.32
2022-09-30T07:07:56.620Z,9.50
2022-09-30T07:10:25.127Z,9.40
2022-09-30T07:12:54.427Z,10.35
2022-09-30T07:15:24.341Z,6.38
2022-09-30T07:17:53.686Z,11.38
2022-09-30T07:20:22.427Z,14.05
2022-09-30T07:22:51.039Z,8.23
2022-09-30T07:25:20.375Z,4.57
2022-09-30T07:27:48.782Z,3.50
2022-09-30T07:30:25.778Z,3.53
2022-09-30T07:32:56.963Z,2.38
2022-09-30T07:35:25.568Z,1.50
2022-09-30T07:37:53.950Z,3.00
2022-09-30T07:40:22.423Z,3.08
2022-09-30T07:42:50.764Z,2.72
2022-09-30T07:45:19.586Z,3.63
2022-09-30T07:47:53.497Z,2.63
2022-09-30T07:50:24.134Z,2.80
2022-09-30T07:52:56.044Z,3.58
2022-09-30T07:55:24.430Z,3.72
2022-09-30T07:57:52.799Z,7.53
2022-09-30T08:00:41.616Z,3.47
2022-09-30T08:03:10.067Z,3.58
2022-09-30T08:05:44.847Z,5.55
2022-09-30T08:08:13.803Z,4.03
2022-09-30T08:10:42.247Z,2.90
2022-09-30T08:13:14.271Z,4.65
2022-09-30T08:15:42.649Z,2.97
2022-09-30T08:18:11.036Z,4.07
2022-09-30T08:20:39.402Z,2.25
2022-09-30T08:23:09.155Z,3.35
2022-09-30T08:25:37.855Z,4.00
2022-09-30T08:28:06.331Z,2.40
2022-09-30T08:30:36.987Z,2.20
2022-09-30T08:33:05.968Z,2.38
2022-09-30T08:35:36.866Z,1.13
2022-09-30T08:38:05.444Z,2.80
2022-09-30T08:40:45.796Z,1.83
2022-09-30T08:43:29.425Z,2.05
2022-09-30T08:46:07.633Z,2.55
2022-09-30T08:48:49.424Z,1.38
2022-09-30T08:51:31.887Z,1.35
2022-09-30T08:54:04.469Z,2.83
2022-09-30T08:56:35.440Z,3.63
2022-09-30T08:59:08.694Z,2.00
2022-09-30T09:01:39.934Z,2.35
2022-09-30T09:04:10.352Z,3.97
2022-09-30T09:06:50.905Z,3.25
2022-09-30T09:09:44.951Z,2.90
2022-09-30T09:12:31.131Z,2.03
2022-09-30T09:15:23.119Z,2.70
2022-09-30T09:18:24.914Z,5.93
2022-09-30T09:20:57.413Z,1.88
2022-09-30T09:23:28.654Z,3.97
2022-09-30T09:25:57.062Z,2.20
2022-09-30T09:28:38.790Z,2.30
2022-09-30T09:31:11.075Z,2.30
2022-09-30T09:33:40.843Z,2.88
2022-09-30T09:36:20.879Z,3.75
2022-09-30T09:39:05.412Z,4.50
2022-09-30T09:41:45.366Z,6.03
2022-09-30T09:44:25.174Z,2.60
2022-09-30T09:47:02.522Z,3.97
2022-09-30T09:49:35.910Z,4.75
2022-09-30T09:52:33.201Z,5.40
2022-09-30T09:55:01.720Z,2.47
2022-09-30T09:57:32.812Z,4.55
2022-09-30T10:00:27.346Z,1.77
2022-09-30T10:03:02.539Z,4.00
2022-09-30T10:05:39.815Z,2.67
2022-09-30T10:08:15.804Z,1.15
2022-09-30T10:10:48.272Z,2.20
2022-09-30T10:13:21.750Z,2.67
2022-09-30T10:15:54.224Z,1.45
2022-09-30T10:18:27.233Z,2.33
2022-09-30T10:20:59.133Z,2.95
2022-09-30T10:23:30.231Z,2.47
2022-09-30T10:26:05.342Z,8.35
2022-09-30T10:28:36.437Z,5.10
2022-09-30T10:31:15.767Z,6.78
2022-09-30T10:33:47.262Z,2.90
2022-09-30T10:36:19.219Z,4.55
2022-09-30T10:39:02.605Z,2.45
2022-09-30T10:41:36.528Z,2.75
2022-09-30T10:44:09.348Z,1.88
2022-09-30T10:46:42.181Z,0.97
2022-09-30T10:49:13.792Z,1.75
2022-09-30T10:51:47.120Z,4.50
2022-09-30T10:54:48.096Z,0.35
2022-09-30T10:57:17.771Z,3.92
2022-09-30T10:59:48.359Z,2.65
2022-09-30T11:02:31.989Z,1.80
2022-09-30T11:05:13.663Z,1.90
2022-09-30T11:07:47.611Z,0.50
2022-09-30T11:10:33.282Z,14.82
2022-09-30T11:13:10.068Z,0.50
2022-09-30T11:15:46.554Z,0.57
2022-09-30T11:18:23.374Z,2.92
2022-09-30T11:20:57.807Z,1.73
2022-09-30T11:23:33.070Z,1.60
2022-09-30T11:26:07.999Z,1.15
2022-09-30T11:29:00.032Z,1.15
2022-09-30T11:31:34.369Z,1.15
2022-09-30T11:34:19.235Z,3.00
2022-09-30T11:36:57.520Z,3.95
2022-09-30T11:40:01.544Z,1.80
2022-09-30T11:42:38.738Z,1.02
2022-09-30T11:45:20.718Z,3.45
2022-09-30T11:48:05.600Z,5.97
2022-09-30T11:50:54.511Z,6.13
2022-09-30T11:53:36.091Z,2.28
2022-09-30T11:56:34.707Z,2.95
2022-09-30T11:59:07.876Z,1.52
2022-09-30T12:01:42.817Z,1.05
2022-09-30T12:04:17.198Z,2.60
2022-09-30T12:06:52.316Z,0.68
2022-09-30T12:09:26.796Z,1.25
2022-09-30T12:12:00.180Z,1.35
2022-09-30T12:14:34.820Z,2.67
2022-09-30T12:17:13.226Z,3.63
2022-09-30T12:19:46.988Z,1.92
2022-09-30T12:22:21.575Z,2.92
2022-09-30T12:24:49.944Z,1.63
2022-09-30T12:27:26.551Z,1.15
2022-09-30T12:30:20.589Z,1.75
2022-09-30T12:33:21.590Z,1.38
2022-09-30T12:36:11.046Z,2.17
2022-09-30T12:38:59.842Z,2.08
2022-09-30T12:41:48.799Z,1.75
2022-09-30T12:44:45.660Z,1.23
2022-09-30T12:47:28.685Z,2.35
2022-09-30T12:49:59.994Z,2.40
2022-09-30T12:52:34.106Z,1.75
2022-09-30T12:55:10.508Z,2.63
2022-09-30T12:57:44.255Z,1.73
2022-09-30T13:02:48.337Z,3.13
2022-09-30T13:05:56.416Z,2.38
2022-09-30T13:08:45.959Z,1.95
2022-09-30T13:11:36.366Z,1.58
2022-09-30T13:14:33.878Z,1.08
2022-09-30T13:17:27.305Z,3.03
2022-09-30T13:19:57.595Z,1.43
2022-09-30T13:22:56.174Z,3.22
2022-09-30T13:25:24.533Z,2.83
2022-09-30T13:28:10.882Z,1.92
2022-09-30T13:30:41.539Z,2.67
2022-09-30T13:33:32.041Z,2.00
2022-09-30T13:36:10.448Z,1.35
2022-09-30T13:38:41.699Z,2.15
2022-09-30T13:41:19.334Z,2.63
2022-09-30T13:43:56.916Z,2.53
2022-09-30T13:46:36.106Z,3.17
2022-09-30T13:49:15.675Z,1.95
2022-09-30T13:51:45.501Z,3.00
2022-09-30T13:54:24.883Z,2.22
2022-09-30T13:56:54.406Z,2.30
2022-09-30T13:59:43.238Z,1.77
2022-09-30T14:02:34.091Z,1.23
2022-09-30T14:05:31.088Z,2.65
2022-09-30T14:08:29.359Z,1.10
2022-09-30T14:11:13.792Z,1.83
2022-09-30T14:13:56.477Z,1.50
2022-09-30T14:16:54.696Z,1.73
2022-09-30T14:19:51.754Z,0.93
2022-09-30T14:22:25.919Z,4.65
2022-09-30T14:24:54.618Z,1.88
2022-09-30T14:27:40.347Z,1.10
2022-09-30T14:30:14.615Z,1.58
2022-09-30T14:32:49.863Z,2.40
2022-09-30T14:35:21.263Z,1.45
2022-09-30T14:37:54.434Z,1.10
2022-09-30T14:40:27.823Z,1.27
2022-09-30T14:43:03.019Z,2.72
2022-09-30T14:45:34.436Z,1.20
2022-09-30T14:48:09.485Z,1.20
2022-09-30T14:50:42.767Z,1.58
2022-09-30T14:53:26.642Z,2.83
2022-09-30T14:55:55.406Z,2.08
2022-09-30T14:58:30.824Z,3.85
2022-09-30T15:01:05.984Z,1.63
2022-09-30T15:03:38.304Z,2.33
2022-09-30T15:06:17.708Z,1.98
2022-09-30T15:08:47.103Z,1.92
2022-09-30T15:11:20.456Z,1.58
2022-09-30T15:13:50.464Z,2.88
2022-09-30T15:16:30.822Z,2.30
2022-09-30T15:19:02.628Z,1.13
2022-09-30T15:21:35.595Z,1.52
2022-09-30T15:24:04.500Z,2.10
2022-09-30T15:26:35.367Z,3.72
2022-09-30T15:29:05.987Z,2.28
2022-09-30T15:31:36.407Z,2.30
2022-09-30T15:34:14.579Z,2.55
2022-09-30T15:36:45.303Z,2.40
2022-09-30T15:39:23.450Z,1.98
2022-09-30T15:41:53.417Z,2.28
2022-09-30T15:44:38.891Z,1.73
2022-09-30T15:47:10.212Z,4.13
2022-09-30T15:49:50.250Z,2.95
2022-09-30T15:52:29.827Z,3.60
2022-09-30T15:54:59.594Z,2.45
2022-09-30T15:57:48.815Z,2.10
2022-09-30T16:00:38.173Z,3.60
2022-09-30T16:03:29.252Z,3.25
2022-09-30T16:06:09.027Z,2.90
2022-09-30T16:08:44.707Z,1.83
2022-09-30T16:11:21.741Z,1.13
2022-09-30T16:13:52.581Z,1.05
2022-09-30T16:16:24.872Z,1.88
2022-09-30T16:18:54.921Z,2.65
2022-09-30T16:21:43.793Z,6.07
2022-09-30T16:24:47.789Z,3.13
2022-09-30T16:27:31.561Z,25.13
2022-09-30T16:30:01.712Z,3.88
2022-09-30T16:32:34.558Z,9.15
2022-09-30T16:35:04.368Z,2.80
2022-09-30T16:37:35.368Z,3.70
2022-09-30T16:40:25.950Z,1.77
2022-09-30T16:42:56.468Z,3.38
2022-09-30T16:45:25.204Z,7.03
2022-09-30T16:47:54.239Z,4.72
2022-09-30T16:50:30.724Z,4.00
2022-09-30T16:53:00.791Z,2.90
2022-09-30T16:55:29.487Z,3.50
2022-09-30T16:57:59.027Z,7.55
2022-09-30T17:00:28.178Z,10.10
2022-09-30T17:02:57.237Z,7.50
2022-09-30T17:05:27.441Z,3.80
2022-09-30T17:07:58.539Z,5.63
2022-09-30T17:10:30.648Z,1.88
2022-09-30T17:13:01.625Z,2.75
2022-09-30T17:15:31.655Z,3.15
2022-09-30T17:18:01.520Z,5.07
2022-09-30T17:20:29.971Z,5.82
2022-09-30T17:22:58.687Z,4.57
2022-09-30T17:25:29.081Z,3.60
2022-09-30T17:27:58.091Z,2.90
2022-09-30T17:30:27.321Z,1.95
2022-09-30T17:32:55.655Z,2.30
2022-09-30T17:35:24.450Z,4.15
2022-09-30T17:37:52.914Z,6.63
2022-09-30T17:40:38.787Z,6.10
2022-09-30T17:43:11.217Z,2.63
2022-09-30T17:45:41.707Z,2.22
2022-09-30T17:48:11.509Z,5.68
2022-09-30T17:50:42.436Z,3.65
2022-09-30T17:53:13.753Z,3.88
2022-09-30T17:55:42.346Z,4.72
2022-09-30T17:58:12.651Z,3.50
2022-09-30T18:00:41.733Z,3.95
2022-09-30T18:03:11.001Z,3.70
2022-09-30T18:05:39.782Z,4.10
2022-09-30T18:08:08.167Z,2.92
2022-09-30T18:10:38.042Z,3.38
2022-09-30T18:13:06.687Z,5.15
2022-09-30T18:15:39.125Z,4.70
2022-09-30T18:18:08.178Z,10.65
2022-09-30T18:20:36.781Z,2.15
2022-09-30T18:23:05.278Z,2.90
2022-09-30T18:25:34.895Z,4.32
2022-09-30T18:28:03.579Z,2.78
2022-09-30T18:30:32.214Z,2.28
2022-09-30T18:33:03.231Z,3.50
2022-09-30T18:35:33.575Z,5.97
2022-09-30T18:38:02.508Z,11.40
2022-09-30T18:40:31.883Z,17.85
2022-09-30T18:43:02.738Z,16.13
2022-09-30T18:45:33.173Z,20.02
2022-09-30T18:48:03.674Z,17.15
2022-09-30T18:50:34.394Z,20.05
2022-09-30T18:53:09.509Z,39.70
2022-09-30T18:55:39.156Z,28.17
2022-09-30T18:58:07.902Z,19.02
2022-09-30T19:00:36.932Z,18.88
2022-09-30T19:03:10.648Z,12.05
2022-09-30T19:08:08.879Z,14.98
2022-09-30T19:10:42.516Z,12.93
2022-09-30T19:13:11.581Z,18.52
2022-09-30T19:15:40.766Z,10.15
2022-09-30T19:18:11.903Z,9.73
2022-09-30T19:20:42.150Z,10.60
2022-09-30T19:23:11.088Z,10.98
2022-09-30T19:25:40.678Z,13.38
2022-09-30T19:28:09.202Z,12.32
2022-09-30T19:30:42.385Z,10.88
2022-09-30T19:33:12.407Z,10.63
2022-09-30T19:35:41.172Z,8.40
2022-09-30T19:38:09.912Z,11.57
2022-09-30T19:40:38.261Z,9.05
2022-09-30T19:43:08.365Z,8.20
2022-09-30T19:45:36.783Z,10.07
2022-09-30T19:48:05.348Z,16.13
2022-09-30T19:50:37.239Z,11.25
2022-09-30T19:53:05.878Z,10.77
2022-09-30T19:55:48.521Z,9.35
2022-09-30T19:58:18.979Z,12.02
2022-09-30T20:00:56.498Z,10.02
2022-09-30T20:03:29.243Z,8.65
2022-09-30T20:06:05.016Z,8.75
2022-09-30T20:08:36.202Z,8.90
2022-09-30T20:11:05.571Z,11.77
2022-09-30T20:13:34.517Z,9.50
2022-09-30T20:16:02.924Z,9.32
2022-09-30T20:18:31.599Z,9.65
2022-09-30T20:21:00.096Z,5.45
2022-09-30T20:23:30.197Z,3.80
2022-09-30T20:26:02.348Z,3.13
2022-09-30T20:28:30.782Z,5.82
2022-09-30T20:30:59.734Z,4.57
2022-09-30T20:33:28.082Z,3.97
2022-09-30T20:35:56.734Z,3.08
2022-09-30T20:38:25.694Z,2.47
2022-09-30T20:40:59.398Z,3.22
2022-09-30T20:46:01.253Z,2.88
2022-09-30T20:48:33.576Z,4.00
2022-09-30T20:51:05.286Z,4.32
2022-09-30T20:53:34.291Z,4.40
2022-09-30T20:56:04.359Z,8.18
2022-09-30T20:58:32.987Z,6.80
2022-09-30T21:01:05.490Z,2.22
2022-09-30T21:03:36.471Z,4.55
2022-09-30T21:06:05.012Z,3.70
2022-09-30T21:08:33.668Z,2.63
2022-09-30T21:11:05.102Z,3.97
2022-09-30T21:13:33.627Z,4.90
2022-09-30T21:16:02.462Z,3.15
2022-09-30T21:18:30.936Z,3.85
2022-09-30T21:21:00.635Z,3.97
2022-09-30T21:23:30.202Z,4.30
2022-09-30T21:25:59.170Z,3.95
2022-09-30T21:28:29.459Z,9.70
2022-09-30T21:30:58.011Z,4.25
2022-09-30T21:33:28.086Z,4.97
2022-09-30T21:36:01.752Z,4.05
2022-09-30T21:38:30.755Z,6.07
2022-09-30T21:41:00.631Z,5.65
2022-09-30T21:43:32.439Z,3.45
2022-09-30T21:46:02.377Z,4.43
2022-09-30T21:48:33.312Z,7.13
2022-09-30T21:51:02.435Z,3.45
2022-09-30T21:53:30.862Z,6.05
2022-09-30T21:56:01.075Z,4.00
2022-09-30T21:58:34.371Z,6.03
2022-09-30T22:01:04.293Z,4.30
2022-09-30T22:03:37.485Z,5.43
2022-09-30T22:06:08.380Z,6.28
2022-09-30T22:08:40.320Z,4.45
2022-09-30T22:11:11.438Z,5.78
2022-09-30T22:13:43.552Z,6.78
2022-09-30T22:16:12.486Z,5.68
2022-09-30T22:18:40.823Z,4.50
2022-09-30T22:21:11.679Z,5.55
2022-09-30T22:23:40.398Z,5.93
2022-09-30T22:26:09.914Z,6.05
2022-09-30T22:28:38.496Z,6.93
2022-09-30T22:31:16.564Z,6.07
2022-09-30T22:34:02.171Z,7.32
2022-09-30T22:36:47.558Z,8.25
2022-09-30T22:39:15.976Z,7.32
2022-09-30T22:41:44.643Z,6.82
2022-09-30T22:44:13.450Z,9.73
2022-09-30T22:46:43.489Z,6.07
2022-09-30T22:49:11.928Z,6.40
2022-09-30T22:51:40.700Z,5.88
2022-09-30T22:54:09.350Z,5.30
2022-09-30T22:56:37.696Z,5.85
2022-09-30T22:59:07.045Z,4.75
2022-09-30T23:01:35.659Z,5.97
2022-09-30T23:04:06.562Z,5.22
2022-09-30T23:06:34.847Z,5.70
2022-09-30T23:09:06.353Z,6.70
2022-09-30T23:11:35.888Z,4.25
2022-09-30T23:14:04.671Z,4.40
2022-09-30T23:16:33.194Z,6.85
2022-09-30T23:19:01.864Z,6.40
2022-09-30T23:21:32.378Z,4.40
2022-09-30T23:24:01.235Z,4.55
2022-09-30T23:26:31.383Z,4.65
2022-09-30T23:29:01.000Z,4.70
2022-09-30T23:31:30.047Z,5.30
2022-09-30T23:34:00.446Z,5.70
2022-09-30T23:36:30.639Z,6.03
2022-09-30T23:39:03.953Z,7.57
2022-09-30T23:41:34.516Z,4.93
2022-09-30T23:44:04.459Z,6.40
2022-09-30T23:46:33.706Z,8.15
2022-09-30T23:49:02.079Z,6.20
2022-09-30T23:51:34.486Z,6.30
2022-09-30T23:54:04.862Z,7.60
2022-09-30T23:56:33.463Z,5.38
2022-09-30T23:59:01.818Z,6.72
